createdAt,value
2022-10-26T00:01:14.404Z,97880.94
2022-10-26T00:03:43.195Z,97883.63
2022-10-26T00:06:21.396Z,97880.13
2022-10-26T00:08:48.622Z,97880.75
2022-10-26T00:11:15.649Z,97872.41
2022-10-26T00:13:43.393Z,97872.31
2022-10-26T00:16:15.202Z,97868.81
2022-10-26T00:18:42.910Z,97879.22
2022-10-26T00:21:10.591Z,97879.22
2022-10-26T00:23:37.391Z,97880.59
2022-10-26T00:26:04.401Z,97866.59
2022-10-26T00:28:31.747Z,97860.31
2022-10-26T00:31:16.680Z,97858.88
2022-10-26T00:33:43.837Z,97863.72
2022-10-26T00:36:13.761Z,97851.16
2022-10-26T00:38:45.893Z,97843.47
2022-10-26T00:41:15.897Z,97853.88
2022-10-26T00:43:42.731Z,97851.81
2022-10-26T00:46:15.823Z,97848.31
2022-10-26T00:48:46.978Z,97850.97
2022-10-26T00:51:20.808Z,97851.69
2022-10-26T00:53:48.126Z,97849.56
2022-10-26T00:56:15.265Z,97847.50
2022-10-26T00:58:42.898Z,97846.72
2022-10-26T01:01:09.718Z,97849.47
2022-10-26T01:03:38.110Z,97850.09
2022-10-26T01:06:06.582Z,97848.03
2022-10-26T01:08:33.412Z,97845.91
2022-10-26T01:11:00.919Z,97842.41
2022-10-26T01:13:30.982Z,97848.66
2022-10-26T01:16:46.886Z,97845.19
2022-10-26T01:20:17.916Z,97853.41
2022-10-26T01:23:27.793Z,97847.84
2022-10-26T01:26:31.850Z,97844.38
2022-10-26T01:29:26.601Z,97843.53
2022-10-26T01:32:03.758Z,97844.91
2022-10-26T01:34:47.221Z,97844.91
2022-10-26T01:37:26.854Z,97853.22
2022-10-26T01:40:07.226Z,97851.81
2022-10-26T01:42:39.423Z,97855.91
2022-10-26T01:45:08.077Z,97849.81
2022-10-26T01:47:37.338Z,97846.59
2022-10-26T01:50:05.657Z,97834.94
2022-10-26T01:52:32.439Z,97829.56
2022-10-26T01:55:28.756Z,97832.44
2022-10-26T01:58:08.335Z,97827.06
2022-10-26T02:00:42.705Z,97822.22
2022-10-26T02:03:29.649Z,97819.44
2022-10-26T02:06:17.346Z,97808.22
2022-10-26T02:09:22.126Z,97806.91
2022-10-26T02:11:53.177Z,97804.72
2022-10-26T02:14:33.942Z,97804.72
2022-10-26T02:17:28.319Z,97799.81
2022-10-26T02:20:05.926Z,97807.34
2022-10-26T02:22:37.409Z,97810.00
2022-10-26T02:25:12.187Z,97809.22
2022-10-26T02:27:45.576Z,97800.19
2022-10-26T02:30:13.624Z,97794.63
2022-10-26T02:32:45.332Z,97780.72
2022-10-26T02:35:15.284Z,97795.41
2022-10-26T02:37:43.723Z,97802.41
2022-10-26T02:40:14.887Z,97817.75
2022-10-26T02:42:44.130Z,97813.53
2022-10-26T02:45:15.046Z,97821.94
2022-10-26T02:47:41.723Z,97808.75
2022-10-26T02:50:08.965Z,97808.22
2022-10-26T02:53:18.599Z,97804.91
2022-10-26T02:55:50.750Z,97805.81
2022-10-26T02:58:22.989Z,97812.16
2022-10-26T03:00:49.998Z,97792.78
2022-10-26T03:03:17.986Z,97796.28
2022-10-26T03:05:44.801Z,97792.88
2022-10-26T03:08:11.565Z,97803.97
2022-10-26T03:10:43.867Z,97801.19
2022-10-26T03:13:10.849Z,97801.94
2022-10-26T03:15:37.947Z,97801.31
2022-10-26T03:18:05.572Z,97806.16
2022-10-26T03:20:32.556Z,97811.72
2022-10-26T03:22:59.185Z,97806.16
2022-10-26T03:25:26.297Z,97813.78
2022-10-26T03:28:03.598Z,97812.31
2022-10-26T03:30:31.775Z,97831.78
2022-10-26T03:32:58.371Z,97842.19
2022-10-26T03:35:25.184Z,97850.63
2022-10-26T03:37:52.033Z,97856.19
2022-10-26T03:40:19.117Z,97860.31
2022-10-26T03:42:45.713Z,97852.59
2022-10-26T03:45:12.399Z,97840.75
2022-10-26T03:47:46.663Z,97838.69
2022-10-26T03:50:14.782Z,97847.03
2022-10-26T03:52:41.766Z,97861.22
2022-10-26T03:55:09.458Z,97889.25
2022-10-26T03:57:43.414Z,97920.16
2022-10-26T04:00:17.784Z,97892.59
2022-10-26T04:02:48.620Z,97871.25
2022-10-26T04:05:16.744Z,97884.69
2022-10-26T04:07:43.691Z,97890.44
2022-10-26T04:10:10.912Z,97908.09
2022-10-26T04:12:38.306Z,97888.78
2022-10-26T04:15:07.101Z,97861.84
2022-10-26T04:17:33.959Z,97829.28
2022-10-26T04:20:00.554Z,97821.69
2022-10-26T04:22:30.019Z,97827.38
2022-10-26T04:24:56.637Z,97815.59
2022-10-26T04:27:23.473Z,97819.81
2022-10-26T04:29:50.250Z,97803.84
2022-10-26T04:32:19.622Z,97809.41
2022-10-26T04:34:46.211Z,97842.09
2022-10-26T04:37:12.864Z,97892.25
2022-10-26T04:39:39.806Z,97892.25
2022-10-26T04:42:09.356Z,97883.88
2022-10-26T04:44:38.210Z,97884.59
2022-10-26T04:47:04.882Z,97865.78
2022-10-26T04:49:31.465Z,97886.59
2022-10-26T04:51:58.241Z,97872.69
2022-10-26T04:54:24.838Z,97876.81
2022-10-26T04:56:51.711Z,97853.22
2022-10-26T04:59:20.924Z,97841.28
2022-10-26T05:01:47.750Z,97860.03
2022-10-26T05:04:14.709Z,97863.38
2022-10-26T05:06:41.441Z,97864.72
2022-10-26T05:09:08.390Z,97857.00
2022-10-26T05:11:34.954Z,97861.13
2022-10-26T05:14:01.547Z,97855.56
2022-10-26T05:16:29.694Z,97848.66
2022-10-26T05:18:56.495Z,97828.56
2022-10-26T05:21:24.145Z,97830.59
2022-10-26T05:24:00.267Z,97836.91
2022-10-26T05:26:27.616Z,97839.59
2022-10-26T05:28:54.740Z,97838.16
2022-10-26T05:31:30.496Z,97838.16
2022-10-26T05:33:59.784Z,97837.47
2022-10-26T05:36:32.826Z,97833.31
2022-10-26T05:39:05.586Z,97848.59
2022-10-26T05:41:35.819Z,97851.97
2022-10-26T05:44:05.121Z,97848.50
2022-10-26T05:46:50.761Z,97850.56
2022-10-26T05:49:23.763Z,97845.72
2022-10-26T05:51:50.530Z,97848.59
2022-10-26T05:54:25.928Z,97845.88
2022-10-26T05:57:05.296Z,97855.84
2022-10-26T05:59:37.363Z,97853.84
2022-10-26T06:02:45.564Z,97864.34
2022-10-26T06:05:22.546Z,97846.28
2022-10-26T06:07:51.453Z,97850.50
2022-10-26T06:10:20.502Z,97850.59
2022-10-26T06:12:49.985Z,97854.72
2022-10-26T06:15:22.294Z,97871.50
2022-10-26T06:18:35.527Z,97862.44
2022-10-26T06:21:41.254Z,97867.91
2022-10-26T06:24:37.798Z,97856.00
2022-10-26T06:27:59.960Z,97872.59
2022-10-26T06:30:26.909Z,97879.59
2022-10-26T06:36:05.992Z,97901.13
2022-10-26T06:38:35.294Z,97910.84
2022-10-26T06:41:02.389Z,97917.75
2022-10-26T06:43:35.199Z,97923.31
2022-10-26T06:46:39.938Z,97931.69
2022-10-26T06:49:41.625Z,97927.44
2022-10-26T06:52:25.717Z,97933.09
2022-10-26T06:54:54.720Z,97944.34
2022-10-26T06:57:28.365Z,97943.78
2022-10-26T07:00:01.993Z,97938.38
2022-10-26T07:02:28.963Z,97946.09
2022-10-26T07:04:55.745Z,97958.03
2022-10-26T07:07:25.298Z,97958.91
2022-10-26T07:09:52.501Z,97966.63
2022-10-26T07:12:19.169Z,97966.72
2022-10-26T07:14:45.883Z,97959.19
2022-10-26T07:17:12.609Z,97957.09
2022-10-26T07:19:40.475Z,97961.31
2022-10-26T07:22:07.118Z,97969.66
2022-10-26T07:24:36.629Z,97971.84
2022-10-26T07:27:03.346Z,97964.19
2022-10-26T07:29:30.013Z,97971.84
2022-10-26T07:31:56.586Z,97975.34
2022-10-26T07:34:23.262Z,97964.19
2022-10-26T07:36:51.560Z,97962.13
2022-10-26T07:39:18.379Z,97967.69
2022-10-26T07:41:45.731Z,97979.53
2022-10-26T07:44:12.377Z,97975.34
2022-10-26T07:46:39.135Z,97969.75
2022-10-26T07:49:05.715Z,97971.09
2022-10-26T07:51:32.319Z,97994.09
2022-10-26T07:53:58.932Z,98001.72
2022-10-26T07:56:25.530Z,98004.44
2022-10-26T07:58:55.622Z,98021.03
2022-10-26T08:01:22.528Z,98045.31
2022-10-26T08:03:52.614Z,98062.53
2022-10-26T08:06:19.673Z,98070.78
2022-10-26T08:08:47.692Z,98066.59
2022-10-26T08:11:15.332Z,98059.59
2022-10-26T08:13:42.208Z,98074.22
2022-10-26T08:16:09.353Z,98069.25
2022-10-26T08:18:36.193Z,98050.41
2022-10-26T08:21:12.314Z,98056.69
2022-10-26T08:23:41.060Z,98060.84
2022-10-26T08:26:08.354Z,98063.63
2022-10-26T08:28:34.950Z,98071.44
2022-10-26T08:31:01.741Z,98065.94
2022-10-26T08:33:28.376Z,98066.81
2022-10-26T08:36:00.194Z,98058.56
2022-10-26T08:38:27.188Z,98055.06
2022-10-26T08:40:56.211Z,98059.19
2022-10-26T08:43:29.475Z,98053.56
2022-10-26T08:46:04.158Z,98051.75
2022-10-26T08:48:35.814Z,98055.53
2022-10-26T08:51:37.443Z,98056.69
2022-10-26T08:54:41.594Z,98055.91
2022-10-26T08:57:25.473Z,98055.56
2022-10-26T09:00:11.013Z,98048.81
2022-10-26T09:02:37.686Z,98044.06
2022-10-26T09:05:09.961Z,98051.06
2022-10-26T09:08:02.726Z,98044.84
2022-10-26T09:11:05.425Z,98042.88
2022-10-26T09:13:58.874Z,98038.84
2022-10-26T09:16:50.409Z,98037.50
2022-10-26T09:20:02.033Z,98038.94
2022-10-26T09:23:39.166Z,98062.53
2022-10-26T09:26:13.301Z,98064.59
2022-10-26T09:28:41.547Z,98056.25
2022-10-26T09:31:15.577Z,98064.69
2022-10-26T09:33:42.177Z,98064.25
2022-10-26T09:36:15.980Z,98069.38
2022-10-26T09:38:58.226Z,98063.34
2022-10-26T09:41:33.426Z,98056.50
2022-10-26T09:44:19.132Z,98058.75
2022-10-26T09:47:12.990Z,98069.88
2022-10-26T09:49:49.549Z,98069.88
2022-10-26T09:52:17.002Z,98067.09
2022-10-26T09:54:43.842Z,98065.75
2022-10-26T09:57:16.009Z,98060.09
2022-10-26T09:59:42.842Z,98061.47
2022-10-26T10:02:45.546Z,98065.56
2022-10-26T10:08:27.665Z,98057.16
2022-10-26T10:11:15.482Z,98067.47
2022-10-26T10:13:44.403Z,98066.03
2022-10-26T10:16:22.933Z,98063.25
2022-10-26T10:19:00.545Z,98056.16
2022-10-26T10:21:39.139Z,98066.59
2022-10-26T10:24:31.671Z,98072.03
2022-10-26T10:27:02.738Z,98070.53
2022-10-26T10:29:39.443Z,98073.22
2022-10-26T10:32:07.958Z,98073.22
2022-10-26T10:34:36.120Z,98068.28
2022-10-26T10:37:03.087Z,98070.34
2022-10-26T10:39:42.616Z,98065.41
2022-10-26T10:42:27.323Z,98063.34
2022-10-26T10:44:55.901Z,98066.13
2022-10-26T10:47:36.808Z,98061.22
2022-10-26T10:50:21.265Z,98063.25
2022-10-26T10:52:49.665Z,98049.34
2022-10-26T10:55:20.523Z,98054.81
2022-10-26T10:58:04.568Z,98056.91
2022-10-26T11:00:36.621Z,98069.34
2022-10-26T11:03:34.613Z,98070.09
2022-10-26T11:06:28.755Z,98070.09
2022-10-26T11:09:15.539Z,98060.28
2022-10-26T11:11:58.021Z,98053.28
2022-10-26T11:14:33.083Z,98054.66
2022-10-26T11:17:08.286Z,98069.88
2022-10-26T11:20:00.760Z,98055.25
2022-10-26T11:22:36.742Z,98062.72
2022-10-26T11:25:19.767Z,98061.63
2022-10-26T11:27:58.595Z,98068.69
2022-10-26T11:30:25.925Z,98061.88
2022-10-26T11:33:00.910Z,98072.50
2022-10-26T11:35:50.582Z,98077.88
2022-10-26T11:38:46.006Z,98064.09
2022-10-26T11:41:22.327Z,98075.25
2022-10-26T11:43:53.651Z,98077.06
2022-10-26T11:46:43.182Z,98076.75
2022-10-26T17:41:06.709Z,98318.53
2022-10-26T17:43:38.039Z,98326.56
2022-10-26T17:46:07.195Z,98323.41
2022-10-26T17:48:34.054Z,98331.09
2022-10-26T17:51:01.916Z,98327.53
2022-10-26T17:53:29.622Z,98341.28
2022-10-26T17:56:08.047Z,98339.66
2022-10-26T17:58:39.000Z,98346.25
2022-10-26T18:01:07.768Z,98347.44
2022-10-26T18:03:36.296Z,98349.81
2022-10-26T18:06:18.031Z,98355.00
2022-10-26T18:08:57.628Z,98354.59
2022-10-26T18:11:34.832Z,98359.75
2022-10-26T18:14:02.486Z,98355.16
2022-10-26T18:16:31.162Z,98349.81
2022-10-26T18:19:10.475Z,98356.22
2022-10-26T18:21:45.057Z,98348.09
2022-10-26T18:24:14.671Z,98351.00
2022-10-26T18:26:42.505Z,98351.81
2022-10-26T18:29:13.158Z,98358.91
2022-10-26T18:31:44.795Z,98356.97
2022-10-26T18:34:15.625Z,98358.53
2022-10-26T18:36:44.628Z,98361.41
2022-10-26T18:39:11.393Z,98360.19
2022-10-26T18:41:46.522Z,98362.34
2022-10-26T18:44:13.258Z,98357.59
2022-10-26T18:46:42.884Z,98365.34
2022-10-26T18:49:19.359Z,98361.94
2022-10-26T18:51:47.661Z,98363.38
2022-10-26T18:54:20.271Z,98373.19
2022-10-26T18:56:47.067Z,98369.06
2022-10-26T18:59:13.922Z,98377.50
2022-10-26T19:01:42.532Z,98381.09
2022-10-26T19:04:10.643Z,98386.06
2022-10-26T19:06:47.799Z,98384.81
2022-10-26T19:09:25.449Z,98386.34
2022-10-26T19:12:01.515Z,98391.41
2022-10-26T19:14:32.289Z,98397.19
2022-10-26T19:17:07.437Z,98402.22
2022-10-26T19:19:35.689Z,98404.50
2022-10-26T19:22:07.002Z,98397.09
2022-10-26T19:24:33.745Z,98408.31
2022-10-26T19:27:01.719Z,98404.94
2022-10-26T19:29:35.609Z,98409.88
2022-10-26T19:32:02.923Z,98409.97
2022-10-26T19:34:32.594Z,98412.84
2022-10-26T19:37:00.817Z,98405.34
2022-10-26T19:39:27.750Z,98409.72
2022-10-26T19:41:54.486Z,98411.13
2022-10-26T19:44:25.332Z,98417.41
2022-10-26T19:46:52.366Z,98420.31
2022-10-26T19:49:19.063Z,98426.47
2022-10-26T19:51:47.834Z,98422.38
2022-10-26T19:54:14.445Z,98422.97
2022-10-26T19:56:41.068Z,98428.53
2022-10-26T19:59:08.270Z,98436.88
2022-10-26T20:01:34.930Z,98425.03
2022-10-26T20:04:06.008Z,98433.38
2022-10-26T20:06:32.615Z,98438.94
2022-10-26T20:08:59.972Z,98436.06
2022-10-26T20:11:26.685Z,98440.31
2022-10-26T20:13:55.426Z,98436.06
2022-10-26T20:16:22.396Z,98449.97
2022-10-26T20:18:49.281Z,98458.31
2022-10-26T20:21:17.016Z,98456.16
2022-10-26T20:23:44.375Z,98456.88
2022-10-26T20:26:18.255Z,98449.84
2022-10-26T20:28:47.089Z,98455.41
2022-10-26T20:31:13.847Z,98461.72
2022-10-26T20:33:40.560Z,98454.69
2022-10-26T20:36:07.678Z,98464.50
2022-10-26T20:38:34.722Z,98465.09
2022-10-26T20:41:04.883Z,98464.34
2022-10-26T20:43:35.358Z,98466.41
2022-10-26T20:46:02.347Z,98465.69
2022-10-26T20:48:29.294Z,98466.31
2022-10-26T20:51:15.078Z,98460.63
2022-10-26T20:54:02.610Z,98463.44
2022-10-26T20:56:29.693Z,98464.06
2022-10-26T20:58:57.942Z,98465.41
2022-10-26T21:01:28.942Z,98464.56
2022-10-26T21:03:57.909Z,98460.34
2022-10-26T21:06:25.597Z,98458.78
2022-10-26T21:08:53.621Z,98460.22
2022-10-26T21:11:21.870Z,98462.28
2022-10-26T21:13:49.634Z,98465.06
2022-10-26T21:16:17.497Z,98466.41
2022-10-26T21:18:44.367Z,98469.78
2022-10-26T21:21:11.417Z,98471.13
2022-10-26T21:23:40.221Z,98475.97
2022-10-26T21:26:08.253Z,98476.69
2022-10-26T21:28:37.694Z,98480.19
2022-10-26T21:31:06.006Z,98478.75
2022-10-26T21:33:33.208Z,98479.34
2022-10-26T21:36:00.582Z,98476.56
2022-10-26T21:38:28.336Z,98475.84
2022-10-26T21:44:03.743Z,98476.56
2022-10-26T21:46:38.121Z,98483.47
2022-10-26T21:49:05.549Z,98484.81
2022-10-26T21:51:32.206Z,98482.63
2022-10-26T21:53:58.826Z,98479.25
2022-10-26T21:56:25.418Z,98483.34
2022-10-26T21:58:52.274Z,98488.19
2022-10-26T22:01:21.425Z,98486.75
2022-10-26T22:03:49.212Z,98484.59
2022-10-26T22:08:50.415Z,98479.78
2022-10-26T22:11:23.842Z,98474.22
2022-10-26T22:13:52.316Z,98475.53
2022-10-26T22:16:24.834Z,98479.78
2022-10-26T22:18:54.524Z,98482.44
2022-10-26T22:21:24.291Z,98483.16
2022-10-26T22:23:50.975Z,98484.59
2022-10-26T22:26:20.045Z,98481.81
2022-10-26T22:28:48.089Z,98477.69
2022-10-26T22:31:18.153Z,98472.16
2022-10-26T22:33:45.265Z,98483.97
2022-10-26T22:36:14.315Z,98481.19
2022-10-26T22:38:41.194Z,98481.19
2022-10-26T22:41:08.901Z,98474.94
2022-10-26T22:43:35.527Z,98478.31
2022-10-26T22:46:04.154Z,98481.09
2022-10-26T22:48:31.558Z,98478.31
2022-10-26T22:50:58.506Z,98484.50
2022-10-26T22:53:25.135Z,98485.13
2022-10-26T22:55:51.931Z,98478.09
2022-10-26T22:58:18.751Z,98481.50
2022-10-26T23:00:45.585Z,98486.34
2022-10-26T23:03:12.428Z,98484.88
2022-10-26T23:05:45.711Z,98492.50
2022-10-26T23:08:12.475Z,98494.56
2022-10-26T23:10:39.306Z,98493.13
2022-10-26T23:13:06.228Z,98486.84
2022-10-26T23:15:33.951Z,98490.94
2022-10-26T23:18:00.602Z,98492.41
2022-10-26T23:20:27.369Z,98494.34
2022-10-26T23:22:54.306Z,98497.75
2022-10-26T23:25:21.148Z,98497.03
2022-10-26T23:27:47.735Z,98500.41
2022-10-26T23:30:14.477Z,98496.28
2022-10-26T23:32:41.046Z,98496.19
2022-10-26T23:35:08.335Z,98495.56
2022-10-26T23:37:35.088Z,98491.97
2022-10-26T23:40:01.705Z,98488.44
2022-10-26T23:42:28.337Z,98496.69
2022-10-26T23:44:54.911Z,98497.28
2022-10-26T23:47:21.845Z,98499.97
2022-10-26T23:49:49.285Z,98493.56
2022-10-26T23:52:16.006Z,98503.34
2022-10-26T23:54:42.659Z,98496.25
2022-10-26T23:57:09.259Z,98491.28
2022-10-26T23:59:35.859Z,98497.56
